To NAV CANADA Home Page Login to a new session Search on AWWS site Disclaimer Vers la page française équivalente Tips FAQ What's new on the site To the Forecasts and Observations / NOTAM section To "File a Flight Plan" website Publications and other links Update of the User's profile FIC Telephone Numbers My Weather Data Folder Route Weather Data Regional Weather Data Local Weather Data To the Forecasts and Observations / NOTAM section
Request Generated 01/24/2022 at 22:32:32 UTC . Weather information available at that time is displayed.


Go to a specific product

Save this request

PIREP

FIR_TORONTO (YZ)

UACN10 CYXU 242130
YZ
UA /OV CYYZ /TM 2127 /FLUNKN /TP UNKN /IC MOD MX 050-060 /RM REPD BY
ALL TYP

UACN10 CYXU 241916
YZ
UA /OV CYYZ 090010 /TM 1916 /FLDURC /TP MU2 /IC MOD MX 050-060

FIR_MONTREAL (UL)

UL - PIREP not available



METAR/TAF
To the Product Selector

HAMILTON/ON    

METAR CYHM 242200Z CCA 18004KT 5/8SM R12/6000FT/U -SN VV019 M07/M08 A2965 RMK SN8 /S02/ SLP060=
METAR CYHM 242200Z 18004KT 5/8SM R12/P6000FT/U -SN VV019 M07/M08 A2965 RMK SN8 /S03/ SLP060=
METAR CYHM 242100Z 19007KT 3/4SM R12/P6000FT/U -SN FEW010 VV017 M07/M08 A2965 RMK SF1SN8 SF TR SLP060=
METAR CYHM 242000Z 19010G16KT 3/4SM R12/6000FT/D -SN OVC016 M07/M09 A2965 RMK SN4SC4 /S01/ SLP061=

TAF CYHM 241740Z 2418/2518 20010G20KT 1 1/2SM -SN OVC008 TEMPO
2418/2424 3SM -SN BKN015 OVC030 PROB30 2418/2424 3/4SM -SN
VV008
FM250000 16008KT 1 1/2SM -SN OVC008 TEMPO 2500/2504 6SM -SN
OVC015
BECMG 2502/2504 29006KT
FM250400 29006KT 6SM -SN BKN015 BKN050
FM250600 30008KT P6SM FEW010 BKN050
FM251000 29008KT P6SM FEW050
RMK NXT FCST BY 250000Z

KITCHENER/WATERLOO/ON    (show WxCam)

SPECI CYKF 242221Z AUTO 14006KT 2 1/2SM -SN OVC027 M07/M09 A2962 RMK SLP049=
SPECI CYKF 242212Z AUTO 14006KT 5SM -SN OVC029 M07/M09 A2962 RMK SLP050=
SPECI CYKF 242203Z AUTO 14007KT 6SM -SN OVC027 M07/M09 A2962 RMK SLP050=
METAR CYKF 242200Z AUTO 14007KT 4SM -SN OVC025 M07/M09 A2962 RMK SLP052=
SPECI CYKF 242158Z AUTO 14007KT 3SM -SN OVC025 M07/M09 A2962 RMK SLP050=
SPECI CYKF 242146Z AUTO 17007KT 2 1/2SM -SN OVC017 M07/M09 A2962 RMK SLP050=
METAR CYKF 242100Z AUTO 17009KT 4SM -SN OVC023 M07/M10 A2961 RMK SLP051=
SPECI CYKF 242002Z AUTO 17007KT 3SM -SN OVC019 M07/M10 A2961 RMK SLP047=
METAR CYKF 242000Z AUTO 16009KT 2 1/2SM -SN OVC019 M07/M09 A2961 RMK VIS VRB 2-3 SLP050=

TAF CYKF 241940Z 2420/2508 18008KT 1 1/2SM -SN OVC010 TEMPO
2420/2502 3SM -SN OVC025 PROB30 2420/2502 3/4SM -SN OVC007
FM250200 15006KT 2SM -SN SCT006 OVC012 TEMPO 2502/2504 6SM -SN
BKN015 OVC030
BECMG 2502/2504 31005KT
FM250400 31005KT P6SM FEW015 OVC030
FM250700 31008KT P6SM FEW015
RMK FCST BASED ON AUTO OBS. NXT FCST BY 250200Z

TORONTO/LESTER B. PEARSON INTL/ON    

METAR CYYZ 242200Z 17005KT 150V210 1SM R15R/P6000FT/U R15L/P6000FT/D R24R/P6000FT/D R23/P6000FT/D -SN VV008 M06/M08 A2968 RMK SN8 /S
02/ SLP064=
METAR CYYZ 242100Z 19008KT 1 1/4SM R15L/5500VP6000FT/U R23/5500VP6000FT/U -SN OVC018 M06/M08 A2968 RMK SN7SC1 SLP063=
METAR CYYZ 242000Z 18006KT 1SM R15R/P6000FT/N R15L/5500VP6000FT/U R24R/5500VP6000FT/D R23/5000VP6000FT/D -SN OVC014 M06/M08 A2968 RM
K SN7SC1 /S01/ SLP064=

TAF AMD CYYZ 241751Z 2418/2524 17010G20KT 1 1/2SM -SN OVC010 TEMPO
2418/2503 3SM -SN SCT010 OVC030 PROB30 2418/2424 3/4SM -SN
OVC007
FM250300 25007KT 2SM -SN OVC015
FM250500 29008KT P6SM FEW015 BKN050
FM250800 30010KT P6SM FEW015
FM251700 29012KT P6SM BKN040
FM251900 30012KT P6SM -SHSN BKN030 PROB30 2519/2524 2SM -SHSN
OVC010
RMK NXT FCST BY 242100Z=

ST. CATHARINES/NIAGARA DISTRICT/ON    

SPECI CYSN 242209Z 17005KT 1SM -SN VV008 M06/M07 A2970 RMK SN8 SLP065=
METAR CYSN 242200Z 15004KT 3/4SM -SN VV006 M06/M07 A2970 RMK SN8 /S01/ SLP065=
METAR CYSN 242100Z 17008KT 3/4SM -SN VV006 M06/M08 A2970 RMK SN8 SLP065=
SPECI CYSN 242044Z 17007KT 3/4SM -SN VV004 M06/M08 A2970 RMK SN8 SLP066=
METAR CYSN 242000Z 17010KT 1SM -SN VV008 M06/M08 A2970 RMK SN8 SLP067=

TAF AMD CYSN 242130Z 2421/2502 17008KT 3/4SM -SN VV006 TEMPO
2421/2424 3SM -SN OVC012
FM250000 18008KT 2SM -SN OVC010 TEMPO 2500/2502 6SM -SN OVC025
RMK NXT FCST BY 251400Z=

TORONTO/BILLY BISHOP TORONTO CITY AIRPORT/ON    (show WxCam)

SPECI CYTZ 242230Z AUTO 23007KT 1 1/2SM -SN OVC013 M05/M07 A2970 RMK SLP063=
SPECI CYTZ 242208Z AUTO 24009G20KT 1 1/4SM -SN SCT014 OVC018 M05/M07 A2970 RMK VIS VRB 1-1 3/4 SLP065=
METAR CYTZ 242200Z AUTO 24014G20KT 2SM -SN SCT012 OVC022 M05/M08 A2970 RMK SLP066=
SPECI CYTZ 242159Z AUTO 24014G20KT 2 1/4SM -SN SCT012 OVC022 M05/M08 A2970 RMK SLP065=
SPECI CYTZ 242158Z AUTO 24014G20KT 3SM -SN FEW012 OVC024 M05/M08 A2970 RMK SLP064=
SPECI CYTZ 242151Z AUTO 24011G17KT 3SM -SN SCT012 OVC026 M05/M08 A2970 RMK SLP064=
SPECI CYTZ 242140Z AUTO 24009G15KT 2 1/4SM -SN SCT010 OVC022 M05/M07 A2970 RMK SLP064=
SPECI CYTZ 242124Z AUTO 25008KT 3SM -SN SCT010 OVC018 M05/M07 A2970 RMK SLP062=
SPECI CYTZ 242113Z AUTO 24007KT 190V280 1 1/2SM -SN BKN010 OVC014 M05/M07 A2970 RMK SLP063=
METAR CYTZ 242100Z AUTO 23012KT 1 1/4SM -SN SCT010 OVC015 M05/M08 A2970 RMK SLP065=
SPECI CYTZ 242059Z AUTO 23011G16KT 1 1/4SM -SN FEW008 OVC015 M05/M07 A2970 RMK SLP064=
SPECI CYTZ 242054Z AUTO 22008KT 1 1/2SM -SN FEW008 OVC015 M05/M07 A2970 RMK SLP064=
SPECI CYTZ 242030Z AUTO 22007G17KT 1 1/4SM -SN FEW009 OVC014 M05/M07 A2970 RMK SLP064=
SPECI CYTZ 242023Z AUTO 22010G20KT 1 1/2SM -SN FEW010 OVC018 M05/M08 A2970 RMK SLP063=
SPECI CYTZ 242011Z AUTO 21016KT 1 1/4SM -SN SCT012 OVC018 M05/M07 A2970 RMK SLP064=
METAR CYTZ 242000Z AUTO 21012G21KT 1 3/4SM -SN OVC018 M05/M08 A2970 RMK VIS VRB 1 1/4-2 1/2 SLP065=

TAF CYTZ 241940Z 2420/2520 21010G20KT 1 1/2SM -SN OVC010 TEMPO
2420/2503 3SM -SN OVC025 PROB30 2420/2424 1/2SM SN OVC007
FM250300 27005KT 2SM -SN OVC015
FM250500 30008KT P6SM FEW015 BKN050
FM250800 30010KT P6SM FEW015
FM251700 29012KT P6SM BKN040
RMK FCST BASED ON AUTO OBS. NXT FCST BY 250200Z

BORDEN/ON    

CYBN - METAR not available

*** REMARK        : Forecast period has ended; this was the last TAF issued
*** REMARQUE : La période de prévision est échue; ceci était le dernier TAF qui a été émis
TAF AMD CYBN 172207Z 1722/1810 CNL
RMK END OF FLY PROGRAM. NXT FCST BY 061000Z=

TORONTO/BUTTONVILLE MUNICIPAL/ON    

LWIS CYKZ 242200Z AUTO 22006KT M07/M09 A2968=
LWIS CYKZ 242100Z AUTO 20008G19KT M07/M09 A2968=
LWIS CYKZ 242000Z AUTO 18006KT M07/M08 A2968=

CYKZ - No TAF is issued for this station

TORONTO/OSHAWA EXECUTIVE AIRPORT/ON    (show WxCam)

SPECI CYOO 242222Z AUTO 17009KT 2 1/2SM -SN OVC013 M06/M07 A2969 RMK SLP065=
METAR CYOO 242200Z AUTO 16010G15KT 3SM -SN BKN015 OVC021 M06/M07 A2969 RMK SLP067=
SPECI CYOO 242138Z AUTO 16008KT 3SM -SN FEW010 BKN014 BKN019 OVC026 M06/M07 A2968 RMK SLP062=
SPECI CYOO 242131Z AUTO 16008KT 2 1/4SM -SN BKN014 BKN019 OVC026 M06/M07 A2969 RMK VIS VRB 1 1/2-3 SLP063=
METAR CYOO 242100Z AUTO 16008G15KT 120V180 3SM -SN BKN015 BKN021 OVC028 M06/M08 A2969 RMK SLP068=
SPECI CYOO 242049Z AUTO 16008KT 3SM -SN SCT011 BKN019 OVC027 M06/M08 A2969 RMK SLP065=
SPECI CYOO 242022Z AUTO 16008KT 2 1/2SM -SN FEW013 BKN020 OVC028 M06/M08 A2970 RMK VIS VRB 1 3/4-3 SLP066=
SPECI CYOO 242020Z AUTO 16009KT 2 1/2SM -SN FEW013 SCT018 OVC026 M06/M08 A2970 RMK VIS VRB 1 3/4-3 SLP067=
METAR CYOO 242000Z AUTO 17007KT 2 1/4SM -SN BKN014 OVC020 M06/M08 A2971 RMK VIS VRB 1 1/4-3 SLP073=

TAF AMD CYOO 241719Z 2417/2502 22008KT 6SM -SN BKN025 OVC060 TEMPO
2417/2418 1 1/2SM -SN OVC010 PROB30 2417/2418 3/4SM -SHSN VV006
FM241800 22010G20KT 1SM -SN BKN008 OVC012 TEMPO 2418/2502 3SM
-SN OVC025 PROB30 2418/2502 3/4SM -SHSN VV006
RMK FCST BASED ON AUTO OBS. NXT FCST BY 242000Z=

PETERBOROUGH/ON    (show WxCam)

SPECI CYPQ 242212Z AUTO 12004KT 1 1/4SM -SN SCT019 SCT071 BKN110 OVC150 M08/M09 A2970 RMK SLP071=
SPECI CYPQ 242208Z AUTO 12003KT 2SM -SN SCT019 SCT047 BKN071 OVC150 M08/M09 A2970 RMK SLP070=
METAR CYPQ 242200Z AUTO 12005KT 2 1/2SM -SN FEW021 SCT046 BKN071 OVC110 M08/M09 A2970 RMK SLP077=
SPECI CYPQ 242155Z AUTO 12005KT 2 1/2SM -SN FEW018 SCT046 BKN071 OVC110 M08/M09 A2970 RMK VIS VRB 1 3/4-3 SLP070=
SPECI CYPQ 242143Z AUTO 12005KT 1 3/4SM -SN FEW015 SCT036 BKN050 OVC120 M08/M09 A2970 RMK SLP070=
SPECI CYPQ 242117Z AUTO 13004KT 1 1/4SM -SN FEW035 SCT048 OVC100 M08/M09 A2970 RMK SLP072=
METAR CYPQ 242100Z AUTO 15007KT 110V170 1 3/4SM -SN FEW035 OVC100 M08/M10 A2970 RMK VIS VRB 1 1/4-2 1/2 SLP079=
SPECI CYPQ 242054Z AUTO 14006KT 2SM -SN FEW037 OVC100 M08/M10 A2970 RMK VIS VRB 1 1/2-3 SLP072=
SPECI CYPQ 242039Z AUTO 15006KT 2 1/2SM -SN SCT037 BKN050 OVC100 M08/M10 A2970 RMK SLP072=
SPECI CYPQ 242019Z AUTO 15008KT 3SM -SN BKN055 BKN079 OVC100 M08/M10 A2971 RMK SLP075=
SPECI CYPQ 242018Z AUTO 15009KT 2 1/2SM -SN FEW031 BKN055 BKN079 OVC100 M08/M10 A2971 RMK SLP075=
SPECI CYPQ 242013Z AUTO 15008KT 1 1/2SM -SN FEW031 SCT076 OVC100 M08/M10 A2971 RMK SLP076=
METAR CYPQ 242000Z AUTO 16008KT 1 1/4SM -SN FEW037 SCT060 OVC100 M08/M10 A2971 RMK SLP082=

TAF CYPQ 241940Z 2420/2503 17008KT 1SM -SN BKN008 OVC012 TEMPO
2420/2503 3SM -SN OVC012 PROB30 2420/2503 3/4SM -SHSN VV006
RMK FCST BASED ON AUTO OBS. NXT FCST BY 251100Z

TRENTON/ON    

METAR CYTR 242200Z 11004KT 1SM -SN OVC016 M08/M09 A2977 RMK SN3SC5 VIS VRB 3/4-1 1/4 /S01/ SLP088=
SPECI CYTR 242221Z 09003KT 3/4SM -SN VV009 M08/M09 A2976 RMK SN8 VIS VRB 1/2-1 SLP087=
METAR CYTR 242100Z 14003KT 1 1/2SM -SN OVC017 M07/M09 A2977 RMK SN2SC6 VIS VRB 1-2 SLP090=
SPECI CYTR 242041Z 15004KT 1SM -SN OVC020 M08/M09 A2978 RMK SN3SC5 VIS VRB 3/4-1 1/4 SLP092=
SPECI CYTR 242013Z 17004KT 140V210 2SM -SN OVC025 M07/M10 A2978 RMK SC8 VIS VRB 1 1/2-2 1/2 SLP093=

TAF AMD CYTR 242226Z 2422/2518 09005KT 3/4SM -SN VV009 TEMPO
2422/2502 2SM -SN SCT012 OVC020
FM250200 10005KT P6SM -SN BKN012 OVC025
FM250900 33005KT 2SM -SN SCT008 OVC012
FM251100 30010KT P6SM SCT012 BKN030
FM251600 29010KT P6SM FEW030
RMK NXT FCST BY 250000Z=

KINGSTON/ON    

SPECI CYGK 242218Z 10010KT 1SM -SN OVC013 M09/M11 A2979 RMK SN5SC3 SLP100=
METAR CYGK 242200Z 10010KT 1 1/2SM -SN OVC013 M09/M11 A2979 RMK SN4SC4 /S01/ SLP100=
SPECI CYGK 242145Z 11010KT 1SM -SN OVC013 M09/M11 A2980 RMK SN3SC5 SLP101=
SPECI CYGK 242134Z 10009KT 2SM -SN OVC014 M09/M11 A2980 RMK SC8 SLP102=
METAR CYGK 242100Z 12011KT 2SM -SN OVC020 M08/M12 A2981 RMK SC8 SLP103=
SPECI CYGK 242029Z 13011KT 2 1/2SM -SN FEW020 OVC033 M08/M13 A2981 RMK SC2SC6 SLP104=
METAR CYGK 242000Z 12011KT 15SM -SN FEW030 OVC050 M08/M15 A2981 RMK SC2SC6 SLP103=

TAF AMD CYGK 242219Z 2422/2504 11010KT 1 1/2SM -SN OVC010 TEMPO
2422/2504 3SM -SN OVC025
RMK NXT FCST BY 250200Z=

OTTAWA/GATINEAU/QC    

SPECI CYND 242215Z 07007KT 6SM -SN OVC040 M16/M20 A2986 RMK SC8 SLP120=
METAR CYND 242200Z 07006KT 2 1/2SM -SN OVC038 M16/M20 A2986 RMK SC8 SLP120=
SPECI CYND 242149Z 07008KT 2 1/2SM -SN OVC038 M16/M20 A2985 RMK SC8 SLP118=
SPECI CYND 242117Z 08007KT 4SM -SN OVC039 M16/M21 A2986 RMK SC8 SLP120=
SPECI CYND 242110Z 08007KT 2 1/2SM -SN OVC038 M16/M21 A2986 RMK SC8 SLP120=
METAR CYND 242100Z 08006KT 12SM -SN OVC038 M16/M22 A2986 RMK SC8 SLP120=
SPECI CYND 242037Z 07007KT 12SM -SN OVC037 M16/M22 A2986 RMK SC8 SLP121=
METAR CYND 242000Z 08007KT 15SM OVC050 M16/M22 A2986 RMK SC8 SLP121=

TAF AMD CYND 242211Z 2422/2502 07006KT 6SM -SN OVC030 TEMPO
2422/2502 2SM -SHSN
RMK NXT FCST BY 250000Z=

OTTAWA/MACDONALD-CARTIER INTL/ON    

METAR CYOW 242200Z CCA 05006KT 5SM -SN OVC040 M14/M19 A2983 RMK SC8 SLP114=
METAR CYOW 242200Z 05006KT 5/8SM R07/P6000FT/U R32/P6000FT/U -SN OVC040 M14/M19 A2983 RMK SC8 SLP114=
METAR CYOW 242100Z 08006KT 6SM -SN OVC040 M15/M20 A2983 RMK SC8 SLP115=
SPECI CYOW 242030Z 07006KT 10SM -SN OVC040 M15/M20 A2983 RMK SC8 SLP115=
METAR CYOW 242000Z 07007KT 15SM BKN035 OVC080 M15/M20 A2983 RMK SC6AC2 SLP115=

TAF CYOW 242040Z 2421/2518 07006KT P6SM BKN040 OVC080 TEMPO
2421/2422 4SM -SN
FM242200 09006KT 6SM -SN FEW012 OVC040 TEMPO 2422/2503 2SM -SN
OVC012
FM250300 07006KT 2SM -SN BKN008 OVC015 TEMPO 2503/2507 4SM -SN
SCT008 OVC015
FM250700 06005KT 6SM -SN SCT007 BKN012
FM251100 03006KT 4SM -SN BKN015 OVC025
FM251600 02006KT P6SM BKN030
RMK NXT FCST BY 250000Z

MONTREAL INTL (MIRABEL)/QC    

METAR CYMX 242200Z 05003KT 15SM OVC070 M14/M22 A2988 RMK AC8 SLP129=
METAR CYMX 242100Z 09003KT 25SM FEW070 BKN080 BKN140 M14/M23 A2988 RMK AC1AS5AS2 AC TR SLP128=
METAR CYMX 242000Z 00000KT 30SM BKN140 M15/M24 A2989 RMK AC7 SLP132=

TAF CYMX 241740Z 2418/2518 VRB03KT P6SM FEW020 SCT180 TEMPO
2418/2420 5SM -SN BKN020 OVC120 PROB30 2418/2420 2SM -SHSN
OVC012
FM242000 08005KT P6SM OVC040 TEMPO 2420/2424 4SM -SN
FM250000 04005KT 6SM -SN SCT015 OVC040 TEMPO 2500/2503 2SM -SN
BKN015 OVC040
FM250300 05005KT 4SM -SN BKN020 OVC040 TEMPO 2503/2508 2SM -SN
BKN008 OVC020
FM250800 04005KT P6SM -SN FEW008 BKN015
FM251200 04005KT P6SM BKN025
FM251600 06005KT 5SM -SN BKN020 OVC030
RMK NXT FCST BY 250000Z

MONTREAL/ST-HUBERT/QC    (show WxCam)

METAR CYHU 242200Z AUTO 09004KT 9SM OVC110 M14/M20 A2991 RMK SLP133=
METAR CYHU 242100Z AUTO 10005KT 9SM FEW100 M14/M21 A2991 RMK SLP132=
METAR CYHU 242000Z AUTO 09006KT 9SM BKN150 M14/M20 A2991 RMK SLP133=

TAF CYHU 241740Z 2418/2518 19006KT P6SM FEW020 SCT120 TEMPO
2418/2421 5SM -SN BKN020 OVC120
FM242100 VRB03KT P6SM OVC040 TEMPO 2421/2501 4SM -SN
FM250100 02008KT P6SM -SN SCT040 BKN080 OVC100 TEMPO 2501/2503
2SM -SN BKN012 OVC040
FM250300 02007KT 4SM -SN BKN012 OVC030 TEMPO 2503/2509 2SM -SN
BKN008 OVC012 PROB30 2503/2509 1 1/2SM -SHSN
FM250900 36006KT P6SM -SN SCT008 OVC030
RMK FCST BASED ON AUTO OBS. NXT FCST BY 250000Z

MONTREAL/PIERRE-ELLIOTT-TRUDEAU INTL/QC    

METAR CYUL 242200Z 10007KT 15SM BKN085 OVC100 M13/M19 A2989 RMK AC6AC2 SLP128=
METAR CYUL 242100Z 06004KT 15SM OVC100 M13/M20 A2990 RMK AC8 SLP130=
METAR CYUL 242000Z 12003KT 060V150 15SM BKN090 OVC150 M13/M21 A2991 RMK AC5AS3 SLP133=

TAF CYUL 242040Z 2421/2518 10005KT P6SM SCT040 OVC090 TEMPO
2421/2424 5SM -SN OVC040
FM250000 04008KT P6SM SCT015 OVC040 TEMPO 2500/2502 2SM -SHSN
BKN015 OVC040
FM250200 04006KT 2SM -SN OVC008 TEMPO 2502/2506 4SM -SN OVC015
FM250600 03006KT 6SM -SN SCT008 BKN012
FM251700 03008KT 5SM -SN BKN015 OVC040
RMK NXT FCST BY 250000Z=


Your time UTC time
Weather data provided by Environment Canada and NAV CANADA